createdAt,value
2023-05-13T00:01:41.054Z,0.80
2023-05-13T00:04:09.110Z,0.87
2023-05-13T00:06:37.227Z,1.00
2023-05-13T00:09:05.385Z,0.83
2023-05-13T00:11:33.396Z,0.90
2023-05-13T00:14:01.317Z,0.97
2023-05-13T00:16:31.097Z,0.80
2023-05-13T00:19:00.350Z,1.00
2023-05-13T00:21:28.469Z,1.00
2023-05-13T00:23:56.392Z,0.90
2023-05-13T00:26:24.362Z,0.80
2023-05-13T00:28:52.340Z,0.90
2023-05-13T00:31:21.052Z,0.90
2023-05-13T00:33:49.033Z,0.90
2023-05-13T00:36:20.964Z,0.80
2023-05-13T00:38:48.941Z,0.90
2023-05-13T00:41:16.870Z,1.00
2023-05-13T00:43:45.020Z,0.73
2023-05-13T00:46:12.937Z,1.10
2023-05-13T00:48:40.902Z,1.10
2023-05-13T00:51:08.802Z,0.70
2023-05-13T00:53:39.411Z,0.90
2023-05-13T00:56:07.744Z,0.97
2023-05-13T00:58:35.725Z,0.80
2023-05-13T01:01:08.412Z,0.90
2023-05-13T01:03:41.964Z,0.87
2023-05-13T01:06:11.836Z,0.90
2023-05-13T01:08:47.382Z,0.93
2023-05-13T01:11:16.980Z,0.90
2023-05-13T01:13:47.542Z,0.90
2023-05-13T01:16:19.329Z,0.80
2023-05-13T01:18:50.466Z,0.90
2023-05-13T01:21:24.952Z,0.90
2023-05-13T01:23:52.930Z,0.80
2023-05-13T01:26:21.056Z,0.90
2023-05-13T01:28:49.050Z,0.90
2023-05-13T01:31:17.013Z,0.80
2023-05-13T01:33:44.947Z,0.83
2023-05-13T01:36:15.673Z,0.77
2023-05-13T01:38:45.363Z,0.90
2023-05-13T01:41:13.408Z,0.77
2023-05-13T01:43:41.358Z,0.90
2023-05-13T01:46:13.349Z,0.90
2023-05-13T01:48:41.409Z,0.77
2023-05-13T01:51:09.937Z,0.90
2023-05-13T01:53:37.893Z,0.90
2023-05-13T01:56:09.989Z,0.80
2023-05-13T01:58:38.263Z,0.87
2023-05-13T02:01:06.247Z,0.90
2023-05-13T02:03:34.538Z,1.00
2023-05-13T02:06:03.118Z,0.90
2023-05-13T02:08:31.113Z,0.80
2023-05-13T02:10:59.226Z,1.00
2023-05-13T02:13:30.810Z,0.80
2023-05-13T02:15:59.062Z,0.90
2023-05-13T02:18:27.031Z,0.90
2023-05-13T02:20:54.995Z,0.80
2023-05-13T02:23:22.890Z,0.80
2023-05-13T02:25:50.804Z,0.80
2023-05-13T02:28:19.047Z,0.90
2023-05-13T02:30:48.336Z,0.90
2023-05-13T02:33:16.313Z,0.90
2023-05-13T02:35:44.303Z,0.87
2023-05-13T02:38:12.240Z,0.90
2023-05-13T02:40:40.145Z,0.80
2023-05-13T02:43:08.287Z,0.70
2023-05-13T02:45:51.768Z,0.90
2023-05-13T02:48:19.713Z,0.80
2023-05-13T02:50:47.637Z,1.00
2023-05-13T02:53:15.641Z,0.70
2023-05-13T02:55:50.442Z,0.70
2023-05-13T02:58:18.366Z,0.80
2023-05-13T03:00:48.362Z,0.90
2023-05-13T03:03:17.688Z,0.90
2023-05-13T03:05:47.363Z,1.00
2023-05-13T03:08:15.280Z,0.90
2023-05-13T03:10:43.190Z,1.00
2023-05-13T03:13:11.336Z,1.00
2023-05-13T03:15:43.468Z,1.30
2023-05-13T03:18:12.344Z,1.70
2023-05-13T03:20:41.773Z,2.10
2023-05-13T03:23:09.765Z,1.87
2023-05-13T03:25:37.731Z,2.10
2023-05-13T03:28:06.426Z,2.13
2023-05-13T03:30:38.812Z,2.33
2023-05-13T03:33:11.854Z,2.10
2023-05-13T03:35:41.172Z,2.40
2023-05-13T03:38:09.544Z,2.83
2023-05-13T03:40:42.533Z,2.43
2023-05-13T03:43:10.709Z,2.97
2023-05-13T03:45:41.250Z,2.70
2023-05-13T03:48:14.033Z,2.63
2023-05-13T03:50:43.335Z,3.10
2023-05-13T03:53:11.793Z,2.80
2023-05-13T03:55:41.147Z,3.00
2023-05-13T03:58:14.236Z,3.80
2023-05-13T04:00:42.645Z,3.47
2023-05-13T04:03:10.800Z,3.23
2023-05-13T04:05:38.757Z,2.80
2023-05-13T04:08:08.076Z,3.30
2023-05-13T04:10:35.987Z,2.70
2023-05-13T04:13:04.159Z,3.40
2023-05-13T04:15:32.394Z,3.03
2023-05-13T04:18:00.472Z,3.27
2023-05-13T04:20:29.187Z,3.07
2023-05-13T04:22:57.138Z,2.90
2023-05-13T04:25:26.409Z,2.93
2023-05-13T04:27:54.412Z,3.10
2023-05-13T04:30:30.745Z,2.80
2023-05-13T04:32:58.756Z,3.60
2023-05-13T04:35:26.824Z,3.13
2023-05-13T04:37:59.004Z,3.30
2023-05-13T04:40:28.378Z,2.70
2023-05-13T04:42:59.369Z,3.03
2023-05-13T04:45:32.649Z,3.03
2023-05-13T04:48:02.090Z,3.00
2023-05-13T04:50:30.219Z,3.40
2023-05-13T04:52:58.550Z,2.80
2023-05-13T04:55:28.002Z,3.10
2023-05-13T04:57:57.531Z,3.03
2023-05-13T05:00:27.176Z,3.00
2023-05-13T05:02:56.616Z,3.07
2023-05-13T05:05:24.796Z,3.73
2023-05-13T05:07:53.229Z,3.70
2023-05-13T05:10:22.612Z,3.63
2023-05-13T05:12:56.499Z,3.23
2023-05-13T05:15:25.658Z,3.30
2023-05-13T05:17:56.997Z,3.10
2023-05-13T05:20:25.363Z,3.27
2023-05-13T05:22:56.946Z,2.87
2023-05-13T05:25:27.603Z,3.73
2023-05-13T05:27:57.128Z,3.07
2023-05-13T05:30:25.657Z,3.10
2023-05-13T05:33:01.201Z,3.03
2023-05-13T05:35:29.875Z,3.40
2023-05-13T05:37:58.800Z,3.30
2023-05-13T05:40:26.673Z,3.20
2023-05-13T05:42:56.127Z,3.10
2023-05-13T05:45:24.126Z,3.03
2023-05-13T05:47:53.974Z,3.03
2023-05-13T05:50:24.738Z,2.67
2023-05-13T05:52:59.059Z,3.37
2023-05-13T05:55:28.318Z,3.10
2023-05-13T05:57:57.575Z,3.10
2023-05-13T06:00:26.410Z,2.90
2023-05-13T06:02:56.945Z,2.97
2023-05-13T06:05:25.099Z,2.83
2023-05-13T06:07:53.001Z,3.33
2023-05-13T06:10:21.183Z,3.03
2023-05-13T06:12:51.077Z,3.03
2023-05-13T06:15:20.479Z,3.40
2023-05-13T06:17:48.623Z,2.83
2023-05-13T06:20:16.904Z,3.00
2023-05-13T06:22:44.809Z,3.23
2023-05-13T06:25:12.887Z,2.90
2023-05-13T06:27:42.040Z,3.10
2023-05-13T06:30:10.766Z,2.83
2023-05-13T06:32:50.351Z,3.20
2023-05-13T06:35:28.675Z,3.03
2023-05-13T06:37:56.929Z,2.70
2023-05-13T06:40:24.960Z,2.80
2023-05-13T06:42:53.157Z,2.90
2023-05-13T06:45:23.600Z,2.60
2023-05-13T06:47:53.461Z,2.93
2023-05-13T06:50:21.741Z,2.67
2023-05-13T06:52:49.835Z,2.80
2023-05-13T06:55:19.030Z,2.67
2023-05-13T06:57:47.289Z,2.70
2023-05-13T07:00:19.175Z,2.70
2023-05-13T07:02:47.294Z,2.80
2023-05-13T07:05:16.568Z,2.90
2023-05-13T07:07:44.438Z,3.33
2023-05-13T07:10:12.399Z,2.93
2023-05-13T07:12:40.335Z,2.87
2023-05-13T07:15:09.295Z,2.60
2023-05-13T07:17:37.344Z,2.80
2023-05-13T07:20:05.956Z,2.70
2023-05-13T07:22:35.295Z,3.00
2023-05-13T07:25:04.078Z,2.90
2023-05-13T07:27:32.112Z,2.60
2023-05-13T07:30:01.766Z,2.33
2023-05-13T07:32:30.775Z,2.47
2023-05-13T07:34:58.759Z,3.00
2023-05-13T07:37:26.678Z,2.70
2023-05-13T07:39:55.897Z,2.67
2023-05-13T07:42:27.249Z,2.53
2023-05-13T07:44:55.266Z,2.73
2023-05-13T07:47:23.182Z,2.83
2023-05-13T07:49:51.139Z,2.70
2023-05-13T07:52:19.046Z,2.67
2023-05-13T07:54:46.978Z,2.50
2023-05-13T07:57:16.210Z,2.40
2023-05-13T07:59:44.901Z,2.80
2023-05-13T08:02:12.988Z,2.73
2023-05-13T08:04:40.947Z,2.97
2023-05-13T08:07:09.468Z,2.30
2023-05-13T08:09:39.412Z,2.30
2023-05-13T08:12:07.804Z,2.57
2023-05-13T08:14:37.386Z,2.27
2023-05-13T08:17:06.402Z,2.80
2023-05-13T08:19:34.358Z,2.63
2023-05-13T08:22:02.282Z,2.20
2023-05-13T08:24:30.173Z,2.30
2023-05-13T08:26:58.122Z,2.50
2023-05-13T08:29:26.148Z,2.60
2023-05-13T08:31:55.898Z,2.20
2023-05-13T08:34:23.847Z,2.07
2023-05-13T08:36:51.742Z,2.33
2023-05-13T08:39:19.672Z,2.40
2023-05-13T08:41:47.576Z,2.30
2023-05-13T08:44:15.720Z,2.40
2023-05-13T08:46:45.959Z,2.60
2023-05-13T08:49:15.338Z,2.33
2023-05-13T08:51:44.275Z,2.30
2023-05-13T08:54:12.267Z,2.47
2023-05-13T08:56:40.225Z,2.27
2023-05-13T08:59:08.170Z,2.30
2023-05-13T09:01:36.256Z,2.43
2023-05-13T09:04:07.399Z,2.43
2023-05-13T09:06:36.773Z,2.50
2023-05-13T09:09:05.809Z,2.50
2023-05-13T09:11:34.668Z,2.20
2023-05-13T09:14:05.597Z,2.47
2023-05-13T09:16:33.772Z,2.30
2023-05-13T09:19:03.657Z,2.30
2023-05-13T09:21:32.590Z,2.30
2023-05-13T09:24:13.153Z,2.40
2023-05-13T09:26:41.455Z,2.20
2023-05-13T09:29:19.131Z,2.30
2023-05-13T09:31:48.720Z,2.20
2023-05-13T09:34:16.842Z,2.60
2023-05-13T09:36:44.758Z,2.40
2023-05-13T09:39:13.956Z,2.13
2023-05-13T09:41:44.662Z,2.10
2023-05-13T09:44:12.644Z,2.47
2023-05-13T09:46:40.658Z,2.33
2023-05-13T09:49:08.583Z,2.13
2023-05-13T09:51:36.498Z,2.20
2023-05-13T09:54:06.354Z,2.10
2023-05-13T09:56:38.760Z,2.20
2023-05-13T09:59:06.711Z,2.03
2023-05-13T10:01:34.814Z,2.20
2023-05-13T10:04:03.162Z,1.90
2023-05-13T10:06:31.527Z,2.30
2023-05-13T10:09:00.155Z,2.33
2023-05-13T10:11:30.109Z,2.30
2023-05-13T10:14:02.977Z,2.40
2023-05-13T10:16:31.031Z,1.90
2023-05-13T10:18:59.428Z,2.33
2023-05-13T10:21:27.767Z,2.10
2023-05-13T10:23:55.689Z,2.10
2023-05-13T10:26:23.808Z,2.10
2023-05-13T10:28:51.696Z,2.10
2023-05-13T10:31:20.967Z,2.00
2023-05-13T10:33:48.920Z,2.30
2023-05-13T10:36:35.003Z,2.03
2023-05-13T10:39:30.760Z,2.00
2023-05-13T10:42:21.024Z,2.10
2023-05-13T10:44:48.950Z,2.00
2023-05-13T10:47:32.288Z,2.07
2023-05-13T10:50:04.719Z,2.30
2023-05-13T10:52:42.866Z,1.83
2023-05-13T10:55:16.673Z,1.90
2023-05-13T10:58:00.884Z,2.00
2023-05-13T11:00:31.995Z,2.10
2023-05-13T11:03:14.661Z,2.13
2023-05-13T11:05:47.057Z,2.00
2023-05-13T11:08:39.713Z,2.10
2023-05-13T11:11:28.361Z,2.00
2023-05-13T11:13:56.510Z,2.37
2023-05-13T11:16:26.902Z,2.20
2023-05-13T11:18:56.309Z,2.33
2023-05-13T11:21:30.634Z,1.83
2023-05-13T11:23:59.529Z,1.87
2023-05-13T11:26:27.455Z,1.83
2023-05-13T11:28:59.606Z,1.80
2023-05-13T11:31:28.638Z,1.97
2023-05-13T11:34:13.654Z,2.00
2023-05-13T11:36:45.974Z,1.87
2023-05-13T11:39:16.025Z,1.97
2023-05-13T11:41:45.734Z,2.10
2023-05-13T11:44:14.624Z,1.77
2023-05-13T11:46:56.118Z,2.30
2023-05-13T11:49:35.468Z,2.07
2023-05-13T11:52:06.763Z,1.80
2023-05-13T11:54:41.181Z,2.13
2023-05-13T11:57:16.419Z,1.80
2023-05-13T11:59:51.100Z,1.80
2023-05-13T12:02:22.057Z,1.90
2023-05-13T12:04:51.655Z,1.83
2023-05-13T12:07:23.913Z,1.80
2023-05-13T12:09:51.892Z,2.10
2023-05-13T12:12:20.488Z,1.80
2023-05-13T12:14:50.180Z,1.90
2023-05-13T12:17:18.493Z,1.93
2023-05-13T12:20:27.091Z,1.73
2023-05-13T12:22:57.720Z,1.73
2023-05-13T12:25:47.568Z,1.90
2023-05-13T12:28:17.581Z,1.90
2023-05-13T12:30:50.193Z,1.77
2023-05-13T12:33:18.546Z,2.10
2023-05-13T12:35:51.774Z,1.80
2023-05-13T12:38:21.943Z,2.00
2023-05-13T12:40:50.088Z,1.90
2023-05-13T12:43:18.742Z,1.80
2023-05-13T12:45:47.360Z,1.80
2023-05-13T12:48:15.889Z,2.20
2023-05-13T12:50:43.798Z,2.00
2023-05-13T12:53:13.075Z,1.80
2023-05-13T12:55:41.031Z,1.90
2023-05-13T12:58:10.851Z,2.10
2023-05-13T13:00:39.019Z,1.80
2023-05-13T13:03:09.158Z,1.80
2023-05-13T13:05:37.163Z,1.77
2023-05-13T13:08:06.096Z,1.87
2023-05-13T13:10:35.735Z,1.67
2023-05-13T13:13:03.773Z,1.70
2023-05-13T13:15:31.694Z,2.00
2023-05-13T13:17:59.596Z,1.80
2023-05-13T13:20:27.578Z,1.80
2023-05-13T13:22:55.621Z,1.90
2023-05-13T13:25:23.723Z,1.80
2023-05-13T13:27:53.208Z,1.97
2023-05-13T13:30:24.275Z,1.90
2023-05-13T13:32:52.184Z,1.73
2023-05-13T13:35:24.596Z,1.70
2023-05-13T13:37:54.192Z,1.70
2023-05-13T13:40:23.371Z,1.97
2023-05-13T13:42:53.078Z,2.03
2023-05-13T13:45:24.033Z,1.80
2023-05-13T13:47:52.044Z,1.70
2023-05-13T13:50:20.179Z,1.60
2023-05-13T13:52:48.182Z,1.73
2023-05-13T13:55:16.282Z,1.70
2023-05-13T13:57:44.253Z,1.60
2023-05-13T14:00:14.921Z,2.13
2023-05-13T14:02:42.977Z,1.90
2023-05-13T14:05:11.645Z,1.80
2023-05-13T14:07:39.576Z,1.80
2023-05-13T14:10:08.764Z,1.70
2023-05-13T14:12:36.765Z,1.80
2023-05-13T14:15:05.370Z,1.90
2023-05-13T14:17:35.010Z,2.00
2023-05-13T14:20:03.574Z,2.00
2023-05-13T14:22:31.542Z,1.70
2023-05-13T14:25:01.659Z,1.80
2023-05-13T14:27:29.626Z,1.70
2023-05-13T14:29:57.543Z,2.10
2023-05-13T14:32:25.428Z,1.67
2023-05-13T14:34:54.671Z,1.90
2023-05-13T14:37:22.588Z,1.70
2023-05-13T14:39:50.507Z,1.80
2023-05-13T14:42:19.288Z,1.60
2023-05-13T14:44:50.150Z,1.60
2023-05-13T14:47:18.991Z,1.90
2023-05-13T14:49:49.811Z,1.80
2023-05-13T14:52:19.126Z,2.00
2023-05-13T14:54:47.364Z,1.90
2023-05-13T14:57:15.360Z,1.60
2023-05-13T14:59:43.266Z,1.90
2023-05-13T15:02:13.727Z,2.10
2023-05-13T15:04:41.711Z,1.63
2023-05-13T15:07:10.715Z,1.70
2023-05-13T15:09:40.022Z,2.00
2023-05-13T15:12:09.026Z,1.80
2023-05-13T15:14:36.994Z,2.00
2023-05-13T15:17:05.906Z,1.63
2023-05-13T15:19:34.015Z,1.77
2023-05-13T15:22:01.986Z,1.90
2023-05-13T15:24:29.970Z,1.80
2023-05-13T15:26:59.262Z,1.80
2023-05-13T15:29:29.871Z,1.80
2023-05-13T15:31:57.765Z,1.50
2023-05-13T15:34:25.712Z,1.80
2023-05-13T15:36:53.647Z,1.60
2023-05-13T15:39:21.576Z,1.80
2023-05-13T15:41:49.526Z,1.70
2023-05-13T15:44:19.059Z,1.80
2023-05-13T15:46:49.620Z,1.40
2023-05-13T15:49:22.188Z,1.77
2023-05-13T15:51:50.152Z,1.70
2023-05-13T15:54:18.155Z,1.80
2023-05-13T15:56:46.074Z,1.60
2023-05-13T15:59:14.006Z,1.60
2023-05-13T16:01:43.321Z,1.80
2023-05-13T16:04:11.369Z,1.80
2023-05-13T16:06:39.332Z,2.07
2023-05-13T16:09:08.459Z,1.80
2023-05-13T16:11:39.412Z,1.83
2023-05-13T16:14:09.994Z,1.73
2023-05-13T16:16:39.099Z,1.87
2023-05-13T16:19:12.198Z,1.60
2023-05-13T16:21:41.529Z,1.90
2023-05-13T16:24:09.486Z,2.00
2023-05-13T16:26:37.448Z,1.77
2023-05-13T16:29:05.381Z,1.93
2023-05-13T16:31:33.507Z,1.80
2023-05-13T16:34:01.444Z,1.97
2023-05-13T16:36:30.720Z,2.07
2023-05-13T16:38:58.647Z,1.87
2023-05-13T16:41:26.699Z,1.50
2023-05-13T16:43:54.658Z,1.60
2023-05-13T16:46:22.689Z,1.90
2023-05-13T16:48:50.720Z,1.70
2023-05-13T16:51:18.712Z,1.70
2023-05-13T16:53:47.986Z,1.70
2023-05-13T16:56:16.554Z,1.70
2023-05-13T16:58:46.187Z,1.80
2023-05-13T17:01:14.256Z,1.63
2023-05-13T17:03:42.344Z,1.80
2023-05-13T17:06:10.357Z,1.70
2023-05-13T17:08:38.272Z,1.60
2023-05-13T17:11:07.958Z,1.50
2023-05-13T17:13:35.874Z,1.70
2023-05-13T17:16:03.764Z,1.80
2023-05-13T17:18:31.745Z,2.03
2023-05-13T17:20:59.976Z,1.70
2023-05-13T17:23:27.898Z,1.43
2023-05-13T17:25:55.813Z,1.50
2023-05-13T17:28:25.162Z,1.60
2023-05-13T17:30:53.146Z,1.70
2023-05-13T17:33:21.686Z,1.90
2023-05-13T17:35:49.639Z,1.70
2023-05-13T17:38:17.556Z,2.00
2023-05-13T17:40:45.560Z,2.63
2023-05-13T17:43:13.442Z,2.27
2023-05-13T17:45:43.559Z,1.80
2023-05-13T17:48:11.621Z,1.73
2023-05-13T17:50:39.581Z,1.70
2023-05-13T17:53:07.571Z,1.63
2023-05-13T17:55:35.559Z,1.77
2023-05-13T17:58:03.582Z,1.73
2023-05-13T18:00:31.514Z,1.93
2023-05-13T18:03:00.823Z,1.83
2023-05-13T18:05:28.866Z,1.80
2023-05-13T18:07:56.795Z,1.80
2023-05-13T18:10:25.319Z,1.77
2023-05-13T18:12:53.248Z,1.60
2023-05-13T18:15:21.220Z,1.90
2023-05-13T18:17:49.184Z,1.70
2023-05-13T18:20:21.708Z,1.73
2023-05-13T18:22:50.031Z,1.90
2023-05-13T18:25:18.070Z,1.90
2023-05-13T18:27:45.960Z,1.90
2023-05-13T18:30:14.517Z,1.90
2023-05-13T18:32:42.455Z,2.10
2023-05-13T18:35:10.639Z,1.50
2023-05-13T18:37:40.986Z,1.90
2023-05-13T18:40:10.167Z,1.60
2023-05-13T18:42:38.084Z,1.77
2023-05-13T18:45:07.803Z,1.60
2023-05-13T18:47:35.701Z,1.70
2023-05-13T18:50:03.764Z,1.90
2023-05-13T18:52:31.657Z,1.43
2023-05-13T18:55:03.624Z,1.83
2023-05-13T18:57:31.543Z,1.70
2023-05-13T18:59:59.453Z,1.57
2023-05-13T19:02:30.356Z,1.70
2023-05-13T19:04:58.665Z,1.67
2023-05-13T19:07:26.884Z,1.80
2023-05-13T19:09:56.759Z,1.80
2023-05-13T19:12:26.376Z,1.60
2023-05-13T19:14:54.304Z,1.80
2023-05-13T19:17:22.275Z,1.67
2023-05-13T19:19:50.231Z,1.70
2023-05-13T19:22:18.160Z,1.63
2023-05-13T19:24:46.081Z,1.67
2023-05-13T19:27:14.143Z,1.80
2023-05-13T19:29:43.433Z,1.77
2023-05-13T19:32:11.365Z,1.70
2023-05-13T19:34:39.334Z,1.50
2023-05-13T19:37:07.418Z,1.60
2023-05-13T19:39:37.651Z,1.77
2023-05-13T19:42:05.927Z,1.57
2023-05-13T19:44:34.054Z,1.80
2023-05-13T19:47:03.417Z,1.70
2023-05-13T19:49:31.317Z,1.80
2023-05-13T19:51:59.412Z,1.70
2023-05-13T19:54:27.352Z,1.50
2023-05-13T19:56:56.015Z,1.50
2023-05-13T19:59:23.939Z,1.53
2023-05-13T20:01:51.909Z,1.40
2023-05-13T20:04:21.733Z,1.40
2023-05-13T20:06:49.664Z,1.60
2023-05-13T20:09:17.647Z,1.50
2023-05-13T20:11:45.596Z,1.50
2023-05-13T20:14:13.576Z,1.50
2023-05-13T20:16:41.608Z,1.53
2023-05-13T20:19:09.750Z,1.40
2023-05-13T20:21:39.306Z,1.60
2023-05-13T20:24:07.756Z,1.60
2023-05-13T20:26:35.975Z,1.83
2023-05-13T20:29:06.110Z,1.60
2023-05-13T20:31:34.173Z,1.47
2023-05-13T20:34:03.237Z,1.70
2023-05-13T20:36:35.855Z,1.60
2023-05-13T20:39:05.153Z,1.60
2023-05-13T20:41:33.152Z,1.57
2023-05-13T20:44:01.081Z,1.40
2023-05-13T20:46:29.112Z,1.40
2023-05-13T20:48:59.114Z,1.60
2023-05-13T20:51:27.053Z,1.50
2023-05-13T20:53:54.932Z,1.50
2023-05-13T20:56:24.188Z,1.53
2023-05-13T20:58:52.829Z,1.63
2023-05-13T21:01:20.767Z,1.40
2023-05-13T21:03:50.134Z,1.43
2023-05-13T21:06:18.335Z,1.60
2023-05-13T21:08:46.374Z,1.43
2023-05-13T21:11:14.296Z,1.30
2023-05-13T21:13:43.581Z,1.40
2023-05-13T21:16:11.522Z,1.27
2023-05-13T21:18:39.509Z,1.60
2023-05-13T21:21:10.366Z,1.40
2023-05-13T21:23:39.779Z,1.50
2023-05-13T21:26:07.715Z,1.30
2023-05-13T21:28:35.577Z,1.40
2023-05-13T21:31:06.685Z,1.60
2023-05-13T21:33:34.674Z,1.40
2023-05-13T21:36:02.560Z,1.60
2023-05-13T21:38:32.951Z,1.40
2023-05-13T21:41:01.022Z,1.50
2023-05-13T21:43:29.018Z,1.40
2023-05-13T21:45:56.934Z,1.30
2023-05-13T21:48:26.274Z,1.33
2023-05-13T21:50:54.217Z,1.37
2023-05-13T21:53:22.381Z,1.57
2023-05-13T21:55:50.289Z,1.40
2023-05-13T21:58:18.205Z,1.47
2023-05-13T22:00:46.267Z,1.50
2023-05-13T22:03:16.134Z,1.47
2023-05-13T22:05:45.752Z,1.50
2023-05-13T22:08:13.764Z,1.30
2023-05-13T22:10:41.695Z,1.37
2023-05-13T22:13:09.579Z,1.30
2023-05-13T22:15:42.365Z,1.30
2023-05-13T22:18:10.713Z,1.40
2023-05-13T22:20:38.727Z,1.67
2023-05-13T22:23:08.058Z,1.50
2023-05-13T22:25:35.994Z,1.50
2023-05-13T22:28:03.925Z,1.70
2023-05-13T22:30:34.649Z,1.30
2023-05-13T22:33:05.834Z,1.53
2023-05-13T22:35:36.293Z,1.30
2023-05-13T22:38:04.942Z,1.50
2023-05-13T22:40:34.256Z,1.47
2023-05-13T22:43:02.248Z,1.40
2023-05-13T22:45:30.720Z,1.40
2023-05-13T22:47:58.669Z,1.40
2023-05-13T22:50:26.559Z,1.50
2023-05-13T22:52:54.524Z,1.50
2023-05-13T22:55:22.590Z,1.60
2023-05-13T22:57:51.894Z,1.60
2023-05-13T23:00:20.382Z,1.43
2023-05-13T23:02:50.764Z,1.50
2023-05-13T23:05:18.999Z,1.40
2023-05-13T23:07:46.906Z,1.40
2023-05-13T23:10:14.826Z,1.50
2023-05-13T23:12:42.711Z,1.30
2023-05-13T23:15:14.745Z,1.40
2023-05-13T23:17:42.736Z,1.27
2023-05-13T23:20:11.907Z,1.73
2023-05-13T23:22:40.008Z,1.47
2023-05-13T23:25:09.192Z,1.40
2023-05-13T23:27:38.302Z,1.50
2023-05-13T23:30:07.356Z,1.50
2023-05-13T23:32:36.674Z,1.50
2023-05-13T23:35:05.324Z,1.50
2023-05-13T23:37:33.321Z,1.50
2023-05-13T23:40:02.271Z,1.33
2023-05-13T23:42:30.257Z,1.50
2023-05-13T23:44:58.303Z,1.60
2023-05-13T23:47:26.299Z,1.50
2023-05-13T23:49:55.670Z,1.33
2023-05-13T23:52:23.572Z,1.30
2023-05-13T23:54:51.495Z,1.33
2023-05-13T23:57:19.414Z,1.40
2023-05-13T23:59:47.325Z,1.40
